메인 페이지
METAR-TAF:

METAR-TAF

공항 :

암리차르, 인도

위도: 31-38N, 경도: 074-52E, 고도: 229m

현재 날씨관측

예보는 27분 전, 00:00시(UTC)에 발표되었습니다.
여러 방향의 바람 2kt
온도 24°C
습도 89%
기압 1010 hPa
시정: 3000m
고도 3000ft 상공 구름 보통
고도 9000ft 상공 구름 보통
박무

METAR: VIAR 220000Z VRB02KT 3000 BR SCT030 SCT090 24/22 Q1010 NOSIG

시각: 05:57 (00:27 UTC)

예보

예보는 1 시간 27분 전, 23:00시(UTC)에 발표되었습니다.
예보 대상 시간: 22일 00시부터 23일 06시까지 (UTC)
5kt
시정: 2000m
고도 3000ft 상공 구름 보통
고도 10000ft 상공 구름 많음
박무
일시적
22일 00시부터 22일 03시까지 (UTC)
시정: 1500m
고도 3500ft 상공 구름 조금, 적란운.
고도 8000ft 상공 흐림
뇌우, 비
전환 중
22일 05시부터 22일 07시까지 (UTC)
남동8kt
시정: 4000m
박무, 연무
일시적
22일 09시부터 22일 12시까지 (UTC)
고도 3500ft 상공 구름 조금, 적란운.
전환 중
22일 15시부터 22일 17시까지 (UTC)
여러 방향의 바람 2kt
시정: 2500m
박무
일시적
22일 20시부터 22일 24시까지 (UTC)
시정: 1500m
고도 3500ft 상공 구름 조금, 적란운.
고도 8000ft 상공 흐림
뇌우, 비
전환 중
23일 04시부터 23일 06시까지 (UTC)
남남동6kt
시정: 4000m
고도 3000ft 상공 구름 조금
고도 10000ft 상공 구름 보통
박무, 연무

TAF: VIAR 212300Z 2200/2306 09005KT 2000 BR SCT030 BKN100 TEMPO 2200/2203 1500 TSRA FEW035CB OVC080 BECMG 2205/2207 13008KT 4000 BR HZ TEMPO 2209/2212 FEW035CB BECMG 2215/2217 VRB02KT 2500 BR TEMPO 2220/2224 1500 TSRA FEW035CB OVC080 BECMG 2304/2306 15006KT 4000 BR HZ FEW030 SCT100

4,000개 이상의 공항 관측 자료 및 예보 (METAR 및 TAF 보고).

지도상에서 검색 가능한 기상관측소가 노란 점과 빨간 점으로 표시되어 있습니다.

기상관측소 명을 보려면 표시 위로 마우스를 이동하세요.

날씨 관측과 예보를 보려면 클릭하세요.

지도 변경 : 확대하려면 엑스 표시가 있는 녹색 버튼, 축소하려면 빼기 표시가 있는 녹색 버튼, 다음 페이지의 지도를 보려면 녹색 화살표를 클릭하세요.


METAR-TAF: